This is the latest recevied weather packets stored in our database for station/object SQ2WB-13. If no packets are shown the sender has not sent any weather packets the latest 1 day(s).
| Time | Temp. | Humidity | Pressure | Rain* | Wind** | Luminosity | Snow |
|---|---|---|---|---|---|---|---|
| 1836274676 | 13.89° C | 98% | 1012.5 hPa | 0 mm | 0.89 m/s, 149° | - | - |
| 1778031901 | 10.56° C | 94% | 997.6 hPa | 0 mm | 1.34 m/s, 37° | - | - |
| 1778031001 | 10.56° C | 94% | 997.6 hPa | 0 mm | 0.89 m/s, 102° | - | - |
| 1778030101 | 10.56° C | 94% | 997.9 hPa | 0 mm | 1.34 m/s, 83° | - | - |
| 1778029201 | 10.56° C | 94% | 998.3 hPa | 0 mm | 0.89 m/s, 88° | - | - |
| 1778028302 | 10.56° C | 94% | 997.9 hPa | 0 mm | 0.89 m/s, 41° | - | - |
| 1778027402 | 10.56° C | 95% | 997.9 hPa | 0 mm | 0.45 m/s, 80° | - | - |
| 1778026502 | 10.56° C | 95% | 998.3 hPa | 0 mm | 0.89 m/s, 39° | - | - |
| 1778025602 | 10.56° C | 95% | 998.9 hPa | 0 mm | 0.45 m/s, 86° | - | - |
| 1778024701 | 10.56° C | 95% | 998.9 hPa | 0 mm | 1.79 m/s, 34° | - | - |
| 1778023801 | 10.56° C | 95% | 998.9 hPa | 0 mm | 0.89 m/s, 31° | - | - |
| 1778022901 | 10.56° C | 94% | 998.9 hPa | 0 mm | 0.45 m/s, 33° | - | - |
| 1778022000 | 10.56° C | 93% | 998.9 hPa | 0 mm | 0.45 m/s, 353° | - | - |
| 1778021102 | 10.56° C | 93% | 998.9 hPa | 0 mm | 0.89 m/s, 74° | - | - |
| 1778020201 | 10.56° C | 92% | 998.9 hPa | 0 mm | 0.45 m/s, 102° | - | - |
| 1778019301 | 10.56° C | 91% | 998.9 hPa | 0 mm | 0.45 m/s, 65° | - | - |
| 1778018402 | 10.56° C | 91% | 998.9 hPa | 0 mm | 0.89 m/s, 92° | - | - |
| 1778017501 | 10.56° C | 90% | 998.9 hPa | 0 mm | 0.45 m/s, 101° | - | - |
| 1778016601 | 10.56° C | 91% | 998.9 hPa | 0 mm | 0.89 m/s, 67° | - | - |
| 1778015701 | 11.67° C | 91% | 998.9 hPa | 0 mm | 0.45 m/s, 20° | - | - |
| 1778014801 | 11.67° C | 91% | 999.3 hPa | 0 mm | 0.45 m/s, 66° | - | - |
| 1778013902 | 11.67° C | 90% | 999.3 hPa | 0 mm | 0.45 m/s, 83° | - | - |
| 1778013001 | 11.67° C | 88% | 999.6 hPa | 0 mm | 0.45 m/s, 52° | - | - |
| 1778012167 | 11.67° C | 87% | 999.6 hPa | 0 mm | 0.45 m/s, 85° | - | - |
| 1778011203 | 12.78° C | 84% | 999.6 hPa | 0 mm | 0.89 m/s, 79° | - | - |
* Rain latest hour (hover to see other rain measurements)
** Current wind speed in m/s (hover to see current wind gust speed)